This is the latest recevied weather packets stored in our database for station/object K1JO. If no packets are shown the sender has not sent any weather packets the latest 10 day(s).
| Time | Temp. | Humidity | Pressure | Rain* | Wind** | Luminosity | Snow |
|---|---|---|---|---|---|---|---|
| 1777560188 | 7.22° C | 98% | 1007 hPa | 4.83 mm | - | 104 W/m² | - |
| 1777559884 | 7.22° C | 98% | 1007.2 hPa | 3.05 mm | - | 64 W/m² | - |
| 1777559579 | 7.22° C | 98% | 1006.6 hPa | 1.27 mm | - | 116 W/m² | - |
| 1777559277 | 7.22° C | 97% | 1006.7 hPa | 1.78 mm | - | 103 W/m² | - |
| 1777558973 | 7.22° C | 98% | 1006.7 hPa | 1.78 mm | - | 111 W/m² | - |
| 1777558669 | 7.22° C | 97% | 1006.4 hPa | 0 mm | - | 170 W/m² | - |
| 1777558365 | 6.67° C | 97% | 1006.5 hPa | 1.27 mm | - | 142 W/m² | - |
| 1777558062 | 6.67° C | 96% | 1006.6 hPa | 1.27 mm | - | 131 W/m² | - |
| 1777557758 | 6.67° C | 96% | 1006.8 hPa | 0 mm | - | 98 W/m² | - |
| 1777557455 | 6.67° C | 96% | 1006.6 hPa | 0 mm | - | 82 W/m² | - |
| 1777557151 | 6.67° C | 96% | 1006.9 hPa | 0 mm | - | 71 W/m² | - |
| 1777556847 | 6.67° C | 96% | 1006.8 hPa | 0 mm | - | 77 W/m² | - |
| 1777556543 | 6.67° C | 96% | 1006.7 hPa | 0 mm | - | 57 W/m² | - |
| 1777556242 | 6.67° C | 95% | 1006.9 hPa | 0 mm | - | 63 W/m² | - |
| 1777555939 | 6.67° C | 96% | 1007.1 hPa | 0 mm | - | 55 W/m² | - |
| 1777555635 | 6.67° C | 96% | 1007.1 hPa | 0 mm | - | 56 W/m² | - |
| 1777555332 | 6.67° C | 96% | 1007 hPa | 0 mm | - | 48 W/m² | - |
| 1777555028 | 6.67° C | 96% | 1007.1 hPa | 0 mm | - | 65 W/m² | - |
| 1777554725 | 6.67° C | 95% | 1007.2 hPa | 0 mm | - | 65 W/m² | - |
| 1777554422 | 6.67° C | 95% | 1007.4 hPa | 0 mm | - | 62 W/m² | - |
| 1777554118 | 6.67° C | 94% | 1007.3 hPa | 0 mm | - | 59 W/m² | - |
| 1777553815 | 6.67° C | 95% | 1007.2 hPa | 0 mm | - | 78 W/m² | - |
| 1777553511 | 6.67° C | 95% | 1007.4 hPa | 0 mm | - | 55 W/m² | - |
| 1777553207 | 6.67° C | 95% | 1007.4 hPa | 0 mm | - | 61 W/m² | - |
| 1777552904 | 6.67° C | 95% | 1007.5 hPa | 0 mm | - | 51 W/m² | - |
* Rain latest hour (hover to see other rain measurements)
** Current wind speed in m/s (hover to see current wind gust speed)